Aviation Digital Data Service (ADDS)

Output produced by METARs form (0213 UTC 11 December 2016)
found at http://aviationweather.gov/adds/metars/
 
KCLE 102341Z 1100/1206 22010KT P6SM OVC035 
     FM110600 18006KT 1 1/2SM -SN OVC015 
     FM111400 17010KT 1 1/2SM -SN OVC007 
     FM111900 17010G20KT 1/2SM SN BLSN FZFG OVC007 
     FM112300 16010G20KT 4SM -SN BLSN BR OVC007 
     FM120400 16010G20KT 4SM -PL BR OVC003